Time;durP1;ratioP1;P1;durP2;ratioP2;P2;SDS_P1;SDS_P2;PMS_P1;PMS_P2;Temp;Humidity;BMP_temperature;BMP_pressure;BME280_temperature;BME280_humidity;BME280_pressure;Samples;Min_cycle;Max_cycle;Signal;HPM_P1;HPM_P2
2021/08/01 00:03:33;;;;;;;0.95;0.35;;;21.10;51.20;;;;;;21219985;27;80056;-72
2021/08/01 00:13:36;;;;;;;1.13;0.65;;;21.00;51.70;;;;;;21219350;27;80750;-71
2021/08/01 00:23:39;;;;;;;1.38;0.70;;;20.90;52.30;;;;;;21237668;27;81974;-76
2021/08/01 00:33:43;;;;;;;1.25;0.50;;;20.70;53.10;;;;;;21236486;27;81145;-72
2021/08/01 00:43:44;;;;;;;1.42;0.50;;;20.60;53.10;;;;;;21235955;27;81745;-71
2021/08/01 00:53:47;;;;;;;1.45;0.70;;;20.50;53.60;;;;;;21199060;27;82084;-70
2021/08/01 01:03:53;;;;;;;1.40;0.70;;;20.40;54.30;;;;;;21209930;27;80496;-71
2021/08/01 01:14:00;;;;;;;3.35;0.70;;;20.30;54.50;;;;;;21215336;27;80632;-71
2021/08/01 01:24:07;;;;;;;1.42;0.65;;;20.20;55.20;;;;;;21233288;27;80534;-73
2021/08/01 01:34:39;;;;;;;3.17;1.05;;;20.20;55.40;;;;;;21214813;27;81082;-72
2021/08/01 01:44:43;;;;;;;1.38;0.55;;;20.00;55.60;;;;;;21208821;27;79918;-72
2021/08/01 01:55:05;;;;;;;1.65;0.70;;;19.90;55.80;;;;;;21229939;27;81605;-75
2021/08/01 02:05:26;;;;;;;0.90;0.50;;;19.90;55.80;;;;;;21231049;27;82376;-72
2021/08/01 02:15:49;;;;;;;1.10;0.40;;;19.70;55.80;;;;;;21229909;27;80723;-74
2021/08/01 02:26:01;;;;;;;1.73;0.50;;;19.70;55.80;;;;;;21229054;27;81929;-71
2021/08/01 02:36:11;;;;;;;1.67;0.77;;;19.70;55.80;;;;;;21210005;27;80160;-70
2021/08/01 02:46:28;;;;;;;1.63;0.63;;;19.70;55.20;;;;;;21227609;27;80689;-74
2021/08/01 02:56:44;;;;;;;1.23;0.52;;;19.70;53.80;;;;;;21208946;27;80320;-71
2021/08/01 03:06:56;;;;;;;1.17;0.43;;;19.60;52.80;;;;;;21208471;27;80668;-72
2021/08/01 03:17:11;;;;;;;3.25;0.60;;;19.40;52.30;;;;;;21208893;27;81943;-72
2021/08/01 03:27:20;;;;;;;1.48;0.65;;;19.50;51.30;;;;;;21224612;27;80985;-72
2021/08/01 03:37:32;;;;;;;1.37;0.77;;;19.40;51.30;;;;;;21224995;27;81805;-72
2021/08/01 03:47:53;;;;;;;3.00;0.63;;;19.20;50.90;;;;;;21208297;27;80678;-75
2021/08/01 03:58:14;;;;;;;3.90;0.82;;;18.90;50.50;;;;;;21208129;27;79944;-71
2021/08/01 04:08:36;;;;;;;1.58;0.70;;;18.90;50.40;;;;;;21220969;27;80766;-71
2021/08/01 04:18:55;;;;;;;3.00;0.90;;;18.50;50.80;;;;;;21221546;27;81918;-71
2021/08/01 04:29:17;;;;;;;1.58;0.77;;;18.40;51.10;;;;;;21222329;27;83365;-72
2021/08/01 04:39:38;;;;;;;1.45;0.70;;;18.30;51.20;;;;;;21220411;27;80328;-71
2021/08/01 04:49:59;;;;;;;1.85;0.75;;;18.20;51.20;;;;;;21219475;27;80772;-76
2021/08/01 05:00:20;;;;;;;2.33;0.88;;;18.10;51.30;;;;;;21218850;27;82242;-72
2021/08/01 05:10:31;;;;;;;2.50;1.17;;;17.90;51.40;;;;;;21216326;27;80032;-75
2021/08/01 05:20:42;;;;;;;2.22;0.98;;;18.00;51.30;;;;;;21214883;27;81088;-72
2021/08/01 05:30:54;;;;;;;1.83;0.75;;;18.10;50.80;;;;;;21231541;27;80827;-74
2021/08/01 05:41:06;;;;;;;1.77;0.80;;;18.00;51.00;;;;;;21213990;27;82413;-71
2021/08/01 05:51:12;;;;;;;3.45;0.82;;;18.10;50.70;;;;;;21194098;27;82636;-75
2021/08/01 06:01:24;;;;;;;5.68;1.65;;;18.20;50.50;;;;;;21200418;27;81354;-68
2021/08/01 06:11:30;;;;;;;4.32;1.42;;;18.50;49.90;;;;;;21197171;27;81112;-69
2021/08/01 06:21:36;;;;;;;2.88;0.60;;;18.90;49.20;;;;;;21216762;27;81789;-71
2021/08/01 06:31:39;;;;;;;3.88;0.90;;;19.10;48.60;;;;;;21195869;27;81786;-69
2021/08/01 06:41:45;;;;;;;2.10;0.88;;;18.90;48.60;;;;;;21192285;27;81755;-69
2021/08/01 06:51:48;;;;;;;2.47;0.70;;;18.90;48.50;;;;;;21212857;27;81209;-70
2021/08/01 07:01:57;;;;;;;2.35;1.02;;;19.00;48.60;;;;;;21192696;27;81686;-69
2021/08/01 07:12:10;;;;;;;;;;;19.10;48.00;;;;;;21196644;27;81151;-67
2021/08/01 07:22:11;;;;;;;2.25;0.80;;;19.30;47.80;;;;;;21213892;27;80863;-68
2021/08/01 07:32:16;;;;;;;3.88;0.93;;;19.60;46.60;;;;;;21189984;27;81636;-68
2021/08/01 07:42:37;;;;;;;5.03;1.13;;;20.20;45.70;;;;;;21236111;27;80380;-69
2021/08/01 07:52:58;;;;;;;4.38;1.33;;;20.60;44.50;;;;;;21224535;27;80754;-71
2021/08/01 08:03:15;;;;;;;2.08;0.80;;;20.60;44.60;;;;;;21222598;27;81061;-68
2021/08/01 08:13:20;;;;;;;3.00;0.90;;;20.10;45.30;;;;;;21239881;27;80808;-67
2021/08/01 08:23:23;;;;;;;2.70;1.00;;;20.00;45.80;;;;;;21220389;27;80713;-68
2021/08/01 08:33:34;;;;;;;1.33;0.82;;;20.50;44.80;;;;;;21223135;27;80591;-71
2021/08/01 08:43:41;;;;;;;2.10;1.20;;;20.90;43.90;;;;;;21220317;27;80739;-69
2021/08/01 08:53:53;;;;;;;2.13;0.80;;;21.50;43.10;;;;;;21238743;27;80640;-70
2021/08/01 09:04:00;;;;;;;1.55;0.80;;;21.80;42.70;;;;;;21220605;27;80343;-83
2021/08/01 09:14:04;;;;;;;1.60;0.75;;;22.20;42.50;;;;;;21218952;27;79869;-74
2021/08/01 09:24:08;;;;;;;2.22;1.20;;;22.20;41.80;;;;;;21216341;27;80965;-69
2021/08/01 09:34:27;;;;;;;5.18;1.10;;;22.40;41.30;;;;;;21215370;27;80798;-71
2021/08/01 09:44:31;;;;;;;2.25;1.00;;;23.00;40.50;;;;;;21214757;27;80600;-71
2021/08/01 09:54:47;;;;;;;2.03;0.80;;;23.50;39.30;;;;;;21213451;27;81108;-72
2021/08/01 10:05:13;;;;;;;2.70;0.80;;;23.50;39.40;;;;;;21212031;27;80941;-73
2021/08/01 10:15:16;;;;;;;3.65;0.60;;;23.80;39.00;;;;;;21212218;27;80788;-72
2021/08/01 10:25:24;;;;;;;2.40;1.10;;;24.60;37.20;;;;;;21200059;27;79885;-72
2021/08/01 10:35:29;;;;;;;2.70;1.02;;;25.70;36.00;;;;;;21230280;27;81292;-72
2021/08/01 10:45:37;;;;;;;3.08;1.17;;;27.00;33.50;;;;;;21211075;27;80751;-72
2021/08/01 10:55:39;;;;;;;2.10;1.20;;;28.30;32.00;;;;;;21230381;27;80420;-75
2021/08/01 11:05:41;;;;;;;4.03;1.30;;;30.10;29.30;;;;;;21209975;27;81175;-74
2021/08/01 11:15:46;;;;;;;3.88;1.38;;;31.60;26.90;;;;;;21243184;27;81954;-73
2021/08/01 11:26:08;;;;;;;2.60;1.08;;;33.80;24.40;;;;;;21227214;27;80038;-74
2021/08/01 11:36:39;;;;;;;3.35;1.10;;;37.30;22.00;;;;;;21242575;27;80410;-74
2021/08/01 11:47:03;;;;;;;4.13;1.23;;;40.70;18.90;;;;;;21225087;27;80762;-73
2021/08/01 11:57:15;;;;;;;2.38;1.10;;;42.00;17.60;;;;;;21224371;27;80947;-72
2021/08/01 12:07:17;;;;;;;3.33;1.80;;;42.30;17.30;;;;;;21222071;27;80980;-72
2021/08/01 12:17:22;;;;;;;2.97;1.67;;;43.00;17.30;;;;;;21240800;27;80916;-73
2021/08/01 12:27:35;;;;;;;2.50;1.88;;;46.40;15.20;;;;;;21220931;27;81145;-73
2021/08/01 12:37:45;;;;;;;3.50;2.05;;;45.40;14.70;;;;;;21240731;27;81032;-71
2021/08/01 12:47:49;;;;;;;4.60;2.10;;;45.60;14.10;;;;;;21239946;27;80898;-71
2021/08/01 12:58:01;;;;;;;2.05;1.65;;;45.70;14.10;;;;;;21218471;27;81016;-71
2021/08/01 13:08:04;;;;;;;2.65;2.25;;;49.80;12.90;;;;;;21217089;27;80781;-72
2021/08/01 13:18:21;;;;;;;4.60;2.55;;;51.10;12.50;;;;;;21215342;27;80649;-72
2021/08/01 13:28:45;;;;;;;1.93;1.77;;;49.50;12.30;;;;;;21214203;27;80470;-63
2021/08/01 13:39:00;;;;;;;2.78;2.25;;;50.60;12.10;;;;;;21212968;27;80663;-63
2021/08/01 13:49:04;;;;;;;2.90;2.67;;;50.50;11.50;;;;;;21231469;27;81068;-62
2021/08/01 13:59:06;;;;;;;3.95;3.08;;;52.50;11.10;;;;;;21231506;27;79903;-66
2021/08/01 14:09:09;;;;;;;3.90;3.00;;;52.70;11.30;;;;;;21232681;27;79773;-62
2021/08/01 14:19:11;;;;;;;4.05;2.78;;;51.50;10.80;;;;;;21215475;27;81059;-65
2021/08/01 14:29:22;;;;;;;3.63;2.53;;;51.80;10.80;;;;;;21234432;27;80533;-68
2021/08/01 14:39:24;;;;;;;4.65;2.40;;;51.50;10.40;;;;;;21214930;27;82018;-66
2021/08/01 14:49:31;;;;;;;2.42;2.22;;;49.40;10.90;;;;;;21210904;27;80086;-63
2021/08/01 14:59:40;;;;;;;4.35;2.53;;;47.50;11.60;;;;;;21210382;27;80783;-68
2021/08/01 15:10:18;;;;;;;7.65;2.40;;;46.30;12.50;;;;;;21211725;27;80049;-61
2021/08/01 15:20:27;;;;;;;5.22;3.80;;;41.70;14.90;;;;;;21179998;27;80968;-66
2021/08/01 15:30:34;;;;;;;2.67;1.40;;;36.80;17.30;;;;;;21227388;27;80561;-62
2021/08/01 15:40:36;;;;;;;4.70;1.70;;;35.60;17.90;;;;;;21226878;27;80858;-63
2021/08/01 15:50:38;;;;;;;4.38;2.38;;;34.50;18.50;;;;;;21208468;27;84298;-61
2021/08/01 16:00:42;;;;;;;2.88;1.75;;;34.10;18.40;;;;;;21213869;27;81792;-62
2021/08/01 16:10:46;;;;;;;3.45;1.80;;;33.60;18.90;;;;;;21239531;27;80129;-62
2021/08/01 16:20:48;;;;;;;3.85;2.20;;;33.80;19.00;;;;;;21218582;27;80819;-64
2021/08/01 16:30:52;;;;;;;3.15;1.67;;;36.80;17.70;;;;;;21219070;27;80963;-66
2021/08/01 16:41:13;;;;;;;2.88;1.80;;;36.60;17.20;;;;;;21236349;27;81981;-74
2021/08/01 16:51:27;;;;;;;4.45;1.65;;;36.30;17.50;;;;;;21216906;27;80106;-71
2021/08/01 17:01:34;;;;;;;12.52;2.72;;;33.20;19.20;;;;;;21215838;27;81553;-71
2021/08/01 17:11:49;;;;;;;2.60;1.75;;;32.90;19.80;;;;;;21215063;27;80748;-71
2021/08/01 17:21:51;;;;;;;2.25;1.50;;;32.70;19.90;;;;;;21214539;27;81324;-72
2021/08/01 17:31:55;;;;;;;3.95;1.55;;;33.00;19.70;;;;;;21213812;27;79916;-71
2021/08/01 17:42:08;;;;;;;2.45;1.70;;;32.30;20.30;;;;;;21213717;27;79922;-72
2021/08/01 17:52:11;;;;;;;2.28;1.48;;;31.90;20.70;;;;;;21231402;27;80831;-71
2021/08/01 18:02:13;;;;;;;2.97;1.80;;;31.60;21.00;;;;;;21211314;27;79870;-73
2021/08/01 18:12:27;;;;;;;2.92;1.60;;;30.20;22.40;;;;;;21229214;27;81735;-71
2021/08/01 18:22:34;;;;;;;4.32;1.80;;;30.20;22.50;;;;;;21209343;27;81033;-71
2021/08/01 18:32:39;;;;;;;4.03;2.25;;;29.30;23.50;;;;;;21209232;27;80883;-66
2021/08/01 18:42:47;;;;;;;4.72;2.22;;;30.70;23.60;;;;;;21209184;27;80730;-65
2021/08/01 18:53:03;;;;;;;4.15;2.33;;;29.90;24.80;;;;;;21228246;27;80620;-67
2021/08/01 19:03:07;;;;;;;5.53;2.75;;;29.00;25.50;;;;;;21207411;27;79863;-67
2021/08/01 19:13:10;;;;;;;3.13;1.67;;;28.60;25.10;;;;;;21208373;27;81100;-68
2021/08/01 19:23:15;;;;;;;7.45;1.60;;;28.50;25.20;;;;;;21206014;27;80976;-71
2021/08/01 19:33:19;;;;;;;2.85;1.92;;;28.20;24.60;;;;;;21210786;27;80928;-73
2021/08/01 19:43:21;;;;;;;4.40;2.70;;;27.90;25.60;;;;;;21220784;27;81231;-73
2021/08/01 19:53:23;;;;;;;2.95;1.48;;;27.50;25.20;;;;;;21237896;27;80490;-72
2021/08/01 20:03:25;;;;;;;6.25;1.80;;;27.30;25.90;;;;;;21219748;27;80060;-72
2021/08/01 20:13:27;;;;;;;5.45;1.88;;;27.20;25.30;;;;;;21218799;27;80984;-74
2021/08/01 20:23:29;;;;;;;2.33;1.30;;;27.00;25.60;;;;;;21219974;27;83637;-73
2021/08/01 20:33:31;;;;;;;6.15;1.65;;;26.90;25.80;;;;;;21236670;27;81165;-74
2021/08/01 20:43:33;;;;;;;2.78;1.50;;;26.80;26.40;;;;;;21217498;27;80811;-73
2021/08/01 20:53:35;;;;;;;4.82;2.00;;;26.50;26.30;;;;;;21214887;27;80669;-73
2021/08/01 21:03:36;;;;;;;1.95;1.15;;;26.20;26.80;;;;;;21214691;27;80114;-73
2021/08/01 21:13:38;;;;;;;2.90;1.25;;;25.90;27.30;;;;;;21213971;27;80735;-73
2021/08/01 21:23:40;;;;;;;2.33;1.08;;;25.70;27.40;;;;;;21213630;27;80514;-73
2021/08/01 21:33:42;;;;;;;2.67;1.20;;;25.50;27.60;;;;;;21213447;27;80683;-73
2021/08/01 21:43:47;;;;;;;2.50;1.27;;;25.30;27.80;;;;;;21213116;27;79965;-75
2021/08/01 21:53:48;;;;;;;3.75;1.50;;;25.10;28.00;;;;;;21230705;27;81823;-73
2021/08/01 22:03:57;;;;;;;2.22;1.20;;;25.00;27.60;;;;;;21233077;27;80709;-72
2021/08/01 22:13:59;;;;;;;3.22;1.33;;;24.80;27.70;;;;;;21214567;27;80693;-73
2021/08/01 22:24:01;;;;;;;2.40;1.20;;;24.70;27.70;;;;;;21197531;27;80586;-73
2021/08/01 22:34:03;;;;;;;2.40;1.08;;;24.60;28.20;;;;;;21212228;27;80132;-75
2021/08/01 22:44:05;;;;;;;3.33;1.10;;;24.40;28.10;;;;;;21211740;27;81028;-75
2021/08/01 22:54:14;;;;;;;2.97;0.90;;;24.40;28.50;;;;;;21227799;27;81034;-74
2021/08/01 23:04:31;;;;;;;1.77;0.98;;;24.20;28.40;;;;;;21208605;27;80235;-75
2021/08/01 23:14:41;;;;;;;3.80;1.10;;;24.10;28.50;;;;;;21225961;27;81093;-72
2021/08/01 23:24:47;;;;;;;2.92;1.23;;;23.90;28.60;;;;;;21208581;27;80616;-72
2021/08/01 23:34:49;;;;;;;1.88;1.13;;;23.80;28.90;;;;;;21207757;27;82066;-74
2021/08/01 23:44:52;;;;;;;4.10;1.40;;;23.70;29.20;;;;;;21206504;27;80964;-73
2021/08/01 23:55:13;;;;;;;2.40;1.13;;;23.50;29.90;;;;;;21204194;27;80936;-74
